Latest Coastal Weather Observations for Taree Airport

IDN60701

Issued at 4:12 am EST Tuesday 28 June 2022 (issued every 10 minutes, with the page automatically refreshed every 10 minutes)

About coastal observations | Map of coastal stations | Coastal observations for NSW | Marine services | Other Formats
Station Details ID: 060141 Name: TAREE AIRPORT AWS Lat: -31.89 Lon: 152.51 Height: 8.0 m
Data from the previous 72 hours. | See also: Recent months at Taree Airport
Date/Time
EST
Wind Sea
Height
m
Swell Vis
km
Cloud Weather Temp
°C
Press
MSL
hPa
Rain since
9am
mm
Dir  Spd
kts
Gust
kts
Height
m
Period
s
Dir
28/04:00am W 10 14 - - - - 10 Partly cloudy - 9.7 1026.8 0.0
28/03:30am W 8 12 - - - - 10 Partly cloudy - 9.6 1026.9 0.0
28/03:00am W 8 10 - - - - 10 Mostly cloudy - 9.5 1027.1 0.0
28/02:30am W 8 13 - - - - 10 - - 9.6 1027.0 0.0
28/02:00am W 9 11 - - - - 10 Partly cloudy - 9.7 1027.2 0.0
28/01:30am W 9 11 - - - - 10 Partly cloudy - 10.0 1027.3 0.0
28/01:00am WSW 9 15 - - - - 10 Partly cloudy - 10.6 1027.6 0.0
28/12:30am W 10 16 - - - - 10 - - 10.7 1027.1 0.0
28/12:00am W 9 15 - - - - 10 Mostly cloudy - 10.8 1027.3 0.0
 
Date/Time
EST
Wind Sea
Height
m
Swell Vis
km
Cloud Weather Temp
°C
Press
MSL
hPa
Rain since
9am
mm
Dir  Spd
kts
Gust
kts
Height
m
Period
s
Dir
27/11:30pm WSW 8 12 - - - - 10 Partly cloudy - 11.4 1027.6 0.0
27/11:00pm WSW 9 14 - - - - 10 Partly cloudy - 11.4 1027.5 0.0
27/10:30pm WSW 11 18 - - - - 10 Partly cloudy - 12.1 1027.7 0.0
27/10:00pm SW 11 16 - - - - 10 Partly cloudy - 11.9 1027.4 0.0
27/09:30pm SW 13 18 - - - - 10 Partly cloudy - 12.1 1027.6 0.0
27/09:00pm SW 13 17 - - - - 10 - - 11.9 1027.2 0.0
27/08:30pm WSW 10 15 - - - - 10 - - 12.0 1026.7 0.0
27/08:00pm SW 13 18 - - - - 10 - - 12.1 1026.6 0.0
27/07:30pm WSW 11 16 - - - - 10 - - 12.1 1026.5 0.0
27/07:00pm SW 13 16 - - - - 10 - - 11.9 1026.1 0.0
27/06:30pm WSW 7 10 - - - - 10 Partly cloudy - 11.8 1026.2 0.0
27/06:00pm SW 8 10 - - - - 10 Cloudy - 12.0 1025.9 0.0
27/05:30pm SSW 12 17 - - - - 10 Cloudy - 12.5 1025.6 0.0
27/05:00pm SSW 19 23 - - - - 10 Partly cloudy - 13.1 1025.5 0.0
27/04:37pm SSW 16 27 - - - - 10 Partly cloudy - 13.3 1025.2 0.0
27/04:30pm SSW 17 23 - - - - 10 Partly cloudy - 13.3 1025.1 0.0
27/04:00pm SSW 16 23 - - - - 10 Partly cloudy - 13.8 1024.9 0.0
27/03:30pm SW 17 22 - - - - 10 Partly cloudy - 14.2 1024.5 0.0
27/03:00pm SSW 16 25 - - - - 10 Cloudy - 14.3 1023.9 0.0
27/02:30pm SW 14 19 - - - - 10 Partly cloudy - 17.4 1023.2 0.0
27/02:00pm SW 16 22 - - - - 10 Partly cloudy - 15.8 1023.2 0.0
27/01:30pm SSW 15 20 - - - - 10 Partly cloudy - 16.4 1022.9 0.0
27/01:00pm SW 14 19 - - - - 10 Partly cloudy - 17.2 1022.7 0.0
27/12:30pm WSW 15 20 - - - - 10 - - 16.8 1023.0 0.0
27/12:00pm WSW 13 21 - - - - 10 - - 16.6 1023.2 0.0
27/11:30am SW 15 22 - - - - 10 - - 16.4 1023.6 0.0
27/11:00am SW 13 19 - - - - 10 - - 16.3 1024.1 0.0
27/10:30am WSW 11 17 - - - - 10 - - 15.9 1024.4 0.0
27/10:00am W 7 10 - - - - 10 - - 15.3 1024.7 0.0
27/09:30am W 6 9 - - - - 10 - - 14.7 1024.8 0.0
27/09:00am WNW 6 8 - - - - 10 - - 13.5 1024.7 0.0
27/08:30am WNW 7 9 - - - - 10 - - 11.8 1024.7 0.0
27/08:00am W 8 11 - - - - 10 - - 11.1 1024.6 0.0
27/07:30am W 7 10 - - - - 10 - - 10.0 1024.4 0.0
27/07:00am W 6 8 - - - - 10 - - 9.4 1024.1 0.0
27/06:30am WSW 5 6 - - - - 10 - - 9.6 1023.8 0.0
27/06:00am WSW 6 9 - - - - 10 Cloudy - 10.0 1023.4 0.0
27/05:30am W 7 8 - - - - 10 - - 9.0 1023.2 0.0
27/05:00am WSW 6 8 - - - - 10 - - 8.6 1023.1 0.0
27/04:30am CALM 0 0 - - - - 10 - - 8.5 1022.8 0.0
27/04:00am WNW 4 5 - - - - 10 - - 10.1 1022.7 0.0
27/03:30am W 4 6 - - - - 10 - - 10.0 1023.3 0.0
27/03:00am W 6 7 - - - - 10 Cloudy - 10.1 1023.6 0.0
27/02:30am W 5 6 - - - - 10 - - 10.3 1023.5 0.0
27/02:00am W 6 8 - - - - 10 - - 10.0 1023.7 0.0
27/01:30am WNW 5 7 - - - - 10 - - 9.7 1023.8 0.0
27/01:00am WNW 4 5 - - - - 10 Partly cloudy - 9.0 1024.0 0.0
27/12:30am W 5 6 - - - - 10 - - 9.6 1023.9 0.0
27/12:00am WNW 3 4 - - - - 10 Mostly cloudy - 9.3 1024.3 0.0
 
Date/Time
EST
Wind Sea
Height
m
Swell Vis
km
Cloud Weather Temp
°C
Press
MSL
hPa
Rain since
9am
mm
Dir  Spd
kts
Gust
kts
Height
m
Period
s
Dir
26/11:30pm W 4 5 - - - - 10 - - 9.6 1024.2 0.0
26/11:00pm WSW 4 5 - - - - 10 - - 9.5 1024.5 0.0
26/10:30pm CALM 0 0 - - - - 10 Partly cloudy - 9.0 1024.4 0.0
26/10:00pm CALM 0 0 - - - - 10 Partly cloudy - 8.9 1024.7 0.0
26/09:30pm NW 3 4 - - - - 10 - - 9.7 1024.5 0.0
26/09:00pm CALM 0 3 - - - - 10 Mostly cloudy - 9.6 1024.6 0.0
26/08:30pm CALM 0 2 - - - - 10 - - 10.3 1024.6 0.0
26/08:00pm CALM 0 0 - - - - 10 - - 10.8 1024.3 0.0
26/07:30pm WSW 1 6 - - - - 10 - - 11.2 1024.1 0.0
26/07:00pm CALM 0 0 - - - - 10 - - 11.6 1024.1 0.0
26/06:30pm NNE 1 3 - - - - 10 - - 13.0 1023.9 0.0
26/06:00pm NNE 2 4 - - - - 10 - - 14.8 1023.5 0.0
26/05:30pm NNE 1 4 - - - - 10 - - 14.5 1023.2 0.0
26/05:00pm ENE 3 4 - - - - 10 - - 15.3 1023.0 0.0
26/04:30pm E 5 6 - - - - 10 - - 16.9 1023.0 0.0
26/04:00pm E 5 6 - - - - 10 - - 18.0 1022.8 0.0
26/03:30pm ESE 5 6 - - - - 10 - - 18.3 1022.8 0.0
26/03:00pm E 5 6 - - - - 10 - - 19.5 1022.7 0.0
26/02:30pm E 5 7 - - - - 10 - - 19.8 1022.6 0.0
26/02:00pm SSW 3 6 - - - - 10 - - 20.0 1022.7 0.0
26/01:30pm SW 2 4 - - - - 10 - - 20.1 1022.9 0.0
26/01:00pm SSW 5 7 - - - - 10 - - 19.4 1023.4 0.0
26/12:30pm W 3 5 - - - - 10 - - 18.7 1023.8 0.0
26/12:00pm WSW 4 6 - - - - 10 - - 18.3 1024.3 0.0
26/11:30am SW 6 7 - - - - 10 - - 17.7 1024.9 0.0
26/11:00am WSW 6 7 - - - - 10 - - 16.4 1025.3 0.0
26/10:30am W 5 8 - - - - 10 - - 15.2 1025.5 0.0
26/10:00am WNW 6 7 - - - - 10 - - 13.7 1025.9 0.0
26/09:30am WNW 6 8 - - - - 10 - - 12.3 1025.9 0.0
26/09:00am WNW 5 7 - - - - 10 - - 10.8 1025.8 0.0
26/08:30am WNW 5 7 - - - - 10 - - 9.2 1025.7 0.0
26/08:00am WNW 5 7 - - - - 10 - - 8.6 1025.6 0.0
26/07:30am WNW 5 7 - - - - 10 - - 7.8 1025.5 0.0
26/07:00am W 5 6 - - - - 10 - - 7.2 1025.3 0.0
26/06:30am WNW 3 5 - - - - 10 - - 7.2 1025.2 0.0
26/06:00am W 6 7 - - - - 10 - - 7.7 1024.8 0.0
26/05:30am WNW 3 5 - - - - 10 - - 7.2 1024.5 0.0
26/05:00am WNW 4 6 - - - - 10 - - 7.7 1024.1 0.0
26/04:30am W 4 5 - - - - 10 - - 7.5 1023.9 0.0
26/04:00am WNW 5 6 - - - - 10 - - 7.8 1023.7 0.0
26/03:30am W 4 5 - - - - 10 - - 7.5 1023.8 0.0
26/03:00am WNW 4 5 - - - - 10 - - 7.6 1023.9 0.0
26/02:30am W 5 6 - - - - 10 - - 6.5 1023.9 0.0
26/02:00am CALM 0 0 - - - - 10 - - 6.5 1023.9 0.0
26/01:30am CALM 0 0 - - - - 10 - - 6.8 1024.2 0.0
26/01:00am WSW 3 4 - - - - 10 - - 7.4 1024.1 0.0
26/12:42am CALM 0 4 - - - - 10 - - 7.6 1024.0 0.0
26/12:30am CALM 0 0 - - - - 4 - - 6.9 1024.1 0.0
26/12:23am CALM 0 0 - - - - 5 - - 6.2 1024.1 0.0
26/12:00am NW 3 4 - - - - 10 - - 6.8 1024.1 0.0
 
Date/Time
EST
Wind Sea
Height
m
Swell Vis
km
Cloud Weather Temp
°C
Press
MSL
hPa
Rain since
9am
mm
Dir  Spd
kts
Gust
kts
Height
m
Period
s
Dir
25/11:30pm CALM 0 0 - - - - 10 - - 7.4 1024.0 0.0
25/11:00pm SW 4 5 - - - - 10 - - 8.0 1024.0 0.0
25/10:30pm WNW 4 4 - - - - 10 - - 7.5 1024.0 0.0
25/10:00pm W 2 5 - - - - 10 - - 8.1 1024.1 0.0
25/09:30pm CALM 0 0 - - - - 10 - - 8.5 1024.1 0.0
25/09:00pm WSW 3 4 - - - - 10 Partly cloudy - 9.0 1024.1 0.0
25/08:30pm CALM 0 0 - - - - 10 - - 9.5 1023.9 0.0
25/08:00pm SW 5 5 - - - - 10 - - 9.3 1023.8 0.0
25/07:30pm NW 2 5 - - - - 10 - - 10.3 1023.3 0.0
25/07:00pm NNW 2 5 - - - - 10 - - 11.5 1022.8 0.0
25/06:30pm CALM 0 0 - - - - 10 - - 12.4 1022.5 0.0
25/06:00pm CALM 0 0 - - - - 10 - - 11.9 1022.3 0.0
25/05:30pm ENE 1 3 - - - - 10 - - 13.1 1022.0 0.0
25/05:00pm CALM 0 0 - - - - 10 - - 15.3 1021.5 0.0
25/04:30pm E 4 6 - - - - 10 - - 16.8 1021.3 0.0
25/04:00pm ENE 4 5 - - - - 10 - - 18.8 1021.2 0.0
25/03:30pm ENE 5 7 - - - - 10 - - 20.0 1021.0 0.0
25/03:00pm NNE 5 7 - - - - 10 - - 20.6 1020.8 0.0
25/02:30pm NNW 4 7 - - - - 10 - - 21.0 1020.7 0.0
25/02:00pm NNW 5 7 - - - - 10 - - 20.4 1020.8 0.0
25/01:30pm NW 3 6 - - - - 10 - - 20.5 1021.0 0.0
25/01:00pm N 3 5 - - - - 10 - - 19.9 1021.3 0.0
25/12:30pm WNW 3 6 - - - - 10 - - 19.3 1021.6 0.0
25/12:00pm W 4 5 - - - - 10 - - 18.1 1022.0 0.0
25/11:30am WSW 5 6 - - - - 10 - - 17.3 1022.3 0.0
25/11:00am WSW 5 7 - - - - 10 - - 16.0 1022.8 0.0
25/10:30am WSW 5 6 - - - - 10 - - 14.7 1023.1 0.0
25/10:00am W 5 6 - - - - 10 - - 13.5 1023.2 0.0
25/09:30am W 5 7 - - - - 10 - - 12.0 1023.2 0.0
25/09:00am W 5 6 - - - - 10 - - 10.5 1023.1 0.2
25/08:30am W 4 6 - - - - 10 - - 8.5 1023.0 0.2
25/08:00am W 4 6 - - - - 10 - - 6.4 1022.7 0.2
25/07:30am CALM 0 0 - - - - 10 - - 4.3 1022.6 0.2
25/07:00am CALM 0 2 - - - - 10 - - 3.6 1022.2 0.2
25/06:30am NW 5 6 - - - - 10 - - 4.5 1021.8 0.2
25/06:00am NNE 4 5 - - - - 10 - - 3.1 1021.5 0.0
25/05:30am CALM 0 0 - - - - 10 - - 2.7 1021.2 0.0
25/05:00am CALM 0 0 - - - - 10 - - 2.3 1020.8 0.0
25/04:30am N 4 6 - - - - 10 - - 2.3 1020.4 0.0

Other formats

Comma delimited format used in spreadsheet applications
http://www.bom.gov.au/fwo/IDN60701/IDN60701.95784.axf

JavaScript Object Notation format (JSON) in row-major order
http://www.bom.gov.au/fwo/IDN60701/IDN60701.95784.json

Data quality

Most of these data are generated automatically and are frequently updated. Quality checks on data are not normally performed. It is possible for incorrect values to appear. Refer to information at About Latest Weather Observations and please check the disclaimer before using these data.